PWSweather.com
Personal Weather Stations
Station Observations

SkegnessGB

Lat: 53.147585, Lon: 0.345774

Elevation: 18

Station Type: Fine Offset WH3080

http://www.skegnessweather.info/

High Low Average
Temperature 66.6°F19.2°C 50.0°F10.0°C 56.5°F13.6°C
Dew Point 56.2°F13.4°C 47.2°F8.4°C 51.8°F11.0°C
Winds 17.2 mph 27.7 kmh 1.3 mph 2.1 kmh 8.0 mph SSW12.9 kmh SSW
Wind Gusts 24.4 mph39.3 kmh 2.5 mph4.0 kmh 10.0 mph16.1 kmh
Humidity 92% 62% 85%
Pressure 29.69 in1005.4 mb 29.57 in1001.4 mb -
Precipitation 0.12 in3.0 mm - -
Hour Temp Dew Point Humidity Winds Wind Gusts Pressure Precip Precip Rate Daily Precip Total
12:00 AM 51.6°F10.9°C 47.9°F8.8°C 87% 4.5 mph SSW7.2 kmh SSW 4.9 mph7.9 kmh 29.61 in1002.7 mb 0.00 in0.0 mm 0.00 in0.0 mm 0.00 in0.0 mm
12:10 AM 51.3°F10.7°C 47.8°F8.8°C 88% 3.2 mph SE5.1 kmh SE 4.9 mph7.9 kmh 29.61 in1002.7 mb 0.00 in0.0 mm 0.00 in0.0 mm 0.00 in0.0 mm
12:20 AM 51.3°F10.7°C 47.8°F8.8°C 88% 6.4 mph NW10.3 kmh NW 7.6 mph12.2 kmh 29.61 in1002.7 mb 0.00 in0.0 mm 0.00 in0.0 mm 0.00 in0.0 mm
12:30 AM 51.6°F10.9°C 48.5°F9.2°C 89% 7.6 mph S12.2 kmh S 8.4 mph13.5 kmh 29.61 in1002.7 mb 0.00 in0.0 mm 0.00 in0.0 mm 0.00 in0.0 mm
12:40 AM 51.4°F10.8°C 48.3°F9.1°C 89% 6.1 mph S9.8 kmh S 7.6 mph12.2 kmh 29.62 in1003.0 mb 0.00 in0.0 mm 0.00 in0.0 mm 0.00 in0.0 mm
12:50 AM 51.4°F10.8°C 48.3°F9.1°C 89% 7.4 mph SW11.9 kmh SW 6.6 mph10.6 kmh 29.61 in1002.7 mb 0.00 in0.0 mm 0.00 in0.0 mm 0.00 in0.0 mm
01:00 AM 51.4°F10.8°C 48.6°F9.2°C 90% 7.2 mph S11.6 kmh S 7.6 mph12.2 kmh 29.61 in1002.7 mb 0.00 in0.0 mm 0.00 in0.0 mm 0.00 in0.0 mm
01:10 AM 51.4°F10.8°C 48.3°F9.1°C 89% 5.6 mph SE9.0 kmh SE 6.6 mph10.6 kmh 29.61 in1002.7 mb 0.00 in0.0 mm 0.00 in0.0 mm 0.00 in0.0 mm
01:20 AM 51.4°F10.8°C 48.6°F9.2°C 90% 6.0 mph SW9.7 kmh SW 5.9 mph9.5 kmh 29.61 in1002.7 mb 0.00 in0.0 mm 0.00 in0.0 mm 0.00 in0.0 mm
01:30 AM 51.3°F10.7°C 48.4°F9.1°C 90% 5.7 mph S9.2 kmh S 5.9 mph9.5 kmh 29.61 in1002.7 mb 0.00 in0.0 mm 0.00 in0.0 mm 0.00 in0.0 mm
01:40 AM 51.3°F10.7°C 48.4°F9.1°C 90% 4.7 mph S7.6 kmh S 9.1 mph14.6 kmh 29.61 in1002.7 mb 0.00 in0.0 mm 0.00 in0.0 mm 0.00 in0.0 mm
01:50 AM 51.3°F10.7°C 48.4°F9.1°C 90% 6.2 mph SW10.0 kmh SW 9.1 mph14.6 kmh 29.60 in1002.4 mb 0.00 in0.0 mm 0.00 in0.0 mm 0.00 in0.0 mm
02:00 AM 51.4°F10.8°C 48.6°F9.2°C 90% 7.3 mph S11.7 kmh S 9.1 mph14.6 kmh 29.60 in1002.4 mb 0.00 in0.0 mm 0.00 in0.0 mm 0.00 in0.0 mm
02:10 AM 51.4°F10.8°C 48.6°F9.2°C 90% 5.9 mph SSE9.5 kmh SSE 6.6 mph10.6 kmh 29.60 in1002.4 mb 0.00 in0.0 mm 0.00 in0.0 mm 0.00 in0.0 mm
02:20 AM 51.6°F10.9°C 48.8°F9.3°C 90% 7.7 mph S12.4 kmh S 7.6 mph12.2 kmh 29.60 in1002.4 mb 0.00 in0.0 mm 0.00 in0.0 mm 0.00 in0.0 mm
02:30 AM 51.6°F10.9°C 48.8°F9.3°C 90% 8.0 mph S12.9 kmh S 9.1 mph14.6 kmh 29.60 in1002.4 mb 0.00 in0.0 mm 0.00 in0.0 mm 0.00 in0.0 mm
02:40 AM 51.4°F10.8°C 48.3°F9.1°C 89% 7.0 mph SE11.3 kmh SE 12.5 mph20.1 kmh 29.61 in1002.7 mb 0.00 in0.0 mm 0.00 in0.0 mm 0.00 in0.0 mm
02:50 AM 50.9°F10.5°C 47.8°F8.8°C 89% 5.9 mph WSW9.5 kmh WSW 8.4 mph13.5 kmh 29.61 in1002.7 mb 0.00 in0.0 mm 0.00 in0.0 mm 0.00 in0.0 mm
03:00 AM 50.5°F10.3°C 47.4°F8.6°C 89% 6.6 mph SSW10.6 kmh SSW 6.6 mph10.6 kmh 29.60 in1002.4 mb 0.00 in0.0 mm 0.00 in0.0 mm 0.00 in0.0 mm
03:10 AM 50.2°F10.1°C 47.4°F8.6°C 90% 6.7 mph S10.8 kmh S 7.6 mph12.2 kmh 29.60 in1002.4 mb 0.00 in0.0 mm 0.00 in0.0 mm 0.00 in0.0 mm
03:20 AM 50.0°F10.0°C 47.2°F8.4°C 90% 7.0 mph W11.3 kmh W 8.4 mph13.5 kmh 29.61 in1002.7 mb 0.00 in0.0 mm 0.00 in0.0 mm 0.00 in0.0 mm
03:30 AM 50.4°F10.2°C 47.8°F8.8°C 91% 9.2 mph S14.8 kmh S 10.8 mph17.4 kmh 29.60 in1002.4 mb 0.00 in0.0 mm 0.00 in0.0 mm 0.00 in0.0 mm
03:40 AM 50.5°F10.3°C 48.3°F9.1°C 92% 8.6 mph SSW13.8 kmh SSW 10.8 mph17.4 kmh 29.60 in1002.4 mb 0.00 in0.0 mm 0.00 in0.0 mm 0.00 in0.0 mm
03:50 AM 50.7°F10.4°C 48.5°F9.2°C 92% 8.4 mph SW13.5 kmh SW 10.1 mph16.3 kmh 29.60 in1002.4 mb 0.00 in0.0 mm 0.00 in0.0 mm 0.00 in0.0 mm
04:00 AM 50.9°F10.5°C 48.7°F9.3°C 92% 9.1 mph SW14.6 kmh SW 10.1 mph16.3 kmh 29.60 in1002.4 mb 0.00 in0.0 mm 0.00 in0.0 mm 0.00 in0.0 mm
04:10 AM 51.3°F10.7°C 49.0°F9.4°C 92% 7.3 mph N11.7 kmh N 8.4 mph13.5 kmh 29.59 in1002.0 mb 0.00 in0.0 mm 0.00 in0.0 mm 0.00 in0.0 mm
04:20 AM 51.4°F10.8°C 49.2°F9.6°C 92% 9.2 mph SW14.8 kmh SW 11.8 mph19.0 kmh 29.60 in1002.4 mb 0.00 in0.0 mm 0.00 in0.0 mm 0.00 in0.0 mm
04:30 AM 51.6°F10.9°C 49.4°F9.7°C 92% 8.9 mph SW14.3 kmh SW 11.8 mph19.0 kmh 29.59 in1002.0 mb 0.00 in0.0 mm 0.00 in0.0 mm 0.00 in0.0 mm
04:40 AM 51.8°F11.0°C 49.5°F9.7°C 92% 9.1 mph S14.6 kmh S 10.1 mph16.3 kmh 29.59 in1002.0 mb 0.00 in0.0 mm 0.00 in0.0 mm 0.00 in0.0 mm
04:50 AM 52.0°F11.1°C 49.7°F9.8°C 92% 10.3 mph SW16.6 kmh SW 11.8 mph19.0 kmh 29.59 in1002.0 mb 0.00 in0.0 mm 0.00 in0.0 mm 0.00 in0.0 mm
05:00 AM 52.3°F11.3°C 50.1°F10.1°C 92% 11.5 mph SE18.5 kmh SE 16.0 mph25.7 kmh 29.59 in1002.0 mb 0.00 in0.0 mm 0.00 in0.0 mm 0.00 in0.0 mm
05:10 AM 52.3°F11.3°C 50.1°F10.1°C 92% 11.4 mph SSW18.3 kmh SSW 13.3 mph21.4 kmh 29.59 in1002.0 mb 0.00 in0.0 mm 0.00 in0.0 mm 0.00 in0.0 mm
05:20 AM 52.5°F11.4°C 50.3°F10.2°C 92% 10.0 mph S16.1 kmh S 12.5 mph20.1 kmh 29.58 in1001.7 mb 0.00 in0.0 mm 0.00 in0.0 mm 0.00 in0.0 mm
05:30 AM 52.5°F11.4°C 50.3°F10.2°C 92% 11.5 mph S18.5 kmh S 14.3 mph23.0 kmh 29.58 in1001.7 mb 0.00 in0.0 mm 0.00 in0.0 mm 0.00 in0.0 mm
05:40 AM 52.5°F11.4°C 50.3°F10.2°C 92% 10.2 mph SW16.4 kmh SW 11.8 mph19.0 kmh 29.58 in1001.7 mb 0.00 in0.0 mm 0.00 in0.0 mm 0.00 in0.0 mm
05:50 AM 52.5°F11.4°C 50.3°F10.2°C 92% 9.5 mph SW15.3 kmh SW 10.1 mph16.3 kmh 29.58 in1001.7 mb 0.00 in0.0 mm 0.00 in0.0 mm 0.00 in0.0 mm
06:00 AM 52.5°F11.4°C 50.3°F10.2°C 92% 9.6 mph SW15.4 kmh SW 11.8 mph19.0 kmh 29.58 in1001.7 mb 0.00 in0.0 mm 0.00 in0.0 mm 0.00 in0.0 mm
06:10 AM 52.7°F11.5°C 50.4°F10.2°C 92% 11.7 mph S18.8 kmh S 10.8 mph17.4 kmh 29.58 in1001.7 mb 0.00 in0.0 mm 0.00 in0.0 mm 0.00 in0.0 mm
06:20 AM 52.7°F11.5°C 50.4°F10.2°C 92% 10.7 mph S17.2 kmh S 11.8 mph19.0 kmh 29.57 in1001.4 mb 0.00 in0.0 mm 0.00 in0.0 mm 0.00 in0.0 mm
06:30 AM 52.9°F11.6°C 50.6°F10.3°C 92% 11.0 mph S17.7 kmh S 10.8 mph17.4 kmh 29.57 in1001.4 mb 0.00 in0.0 mm 0.00 in0.0 mm 0.00 in0.0 mm
06:40 AM 52.9°F11.6°C 50.6°F10.3°C 92% 10.2 mph SW16.4 kmh SW 15.0 mph24.1 kmh 29.58 in1001.7 mb 0.00 in0.0 mm 0.00 in0.0 mm 0.00 in0.0 mm
06:50 AM 53.2°F11.8°C 51.0°F10.6°C 92% 11.4 mph SSW18.3 kmh SSW 13.3 mph21.4 kmh 29.58 in1001.7 mb 0.00 in0.0 mm 0.00 in0.0 mm 0.00 in0.0 mm
07:00 AM 53.4°F11.9°C 51.2°F10.7°C 92% 12.2 mph S19.6 kmh S 15.0 mph24.1 kmh 29.57 in1001.4 mb 0.00 in0.0 mm 0.00 in0.0 mm 0.00 in0.0 mm
07:10 AM 53.6°F12.0°C 50.4°F10.2°C 89% 12.3 mph WSW19.8 kmh WSW 17.5 mph28.2 kmh 29.58 in1001.7 mb 0.00 in0.0 mm 0.00 in0.0 mm 0.00 in0.0 mm
07:20 AM 53.8°F12.1°C 50.3°F10.2°C 88% 13.3 mph SW21.4 kmh SW 17.5 mph28.2 kmh 29.58 in1001.7 mb 0.00 in0.0 mm 0.00 in0.0 mm 0.00 in0.0 mm
07:30 AM 54.0°F12.2°C 50.5°F10.3°C 88% 12.5 mph S20.1 kmh S 13.3 mph21.4 kmh 29.59 in1002.0 mb 0.00 in0.0 mm 0.00 in0.0 mm 0.00 in0.0 mm
07:40 AM 54.1°F12.3°C 51.0°F10.6°C 89% 10.8 mph SSW17.4 kmh SSW 13.3 mph21.4 kmh 29.59 in1002.0 mb 0.00 in0.0 mm 0.00 in0.0 mm 0.00 in0.0 mm
07:50 AM 54.7°F12.6°C 51.5°F10.8°C 89% 10.5 mph SW16.9 kmh SW 10.8 mph17.4 kmh 29.59 in1002.0 mb 0.00 in0.0 mm 0.00 in0.0 mm 0.00 in0.0 mm
08:00 AM 55.0°F12.8°C 51.9°F11.1°C 89% 11.6 mph WSW18.7 kmh WSW 13.3 mph21.4 kmh 29.60 in1002.4 mb 0.00 in0.0 mm 0.00 in0.0 mm 0.00 in0.0 mm
08:10 AM 55.4°F13.0°C 51.9°F11.1°C 88% 13.4 mph SW21.6 kmh SW 11.8 mph19.0 kmh 29.60 in1002.4 mb 0.00 in0.0 mm 0.00 in0.0 mm 0.00 in0.0 mm
08:20 AM 55.9°F13.3°C 52.4°F11.3°C 88% 10.8 mph SW17.4 kmh SW 13.3 mph21.4 kmh 29.60 in1002.4 mb 0.00 in0.0 mm 0.00 in0.0 mm 0.00 in0.0 mm
08:30 AM 56.3°F13.5°C 52.5°F11.4°C 87% 11.2 mph S18.0 kmh S 12.5 mph20.1 kmh 29.60 in1002.4 mb 0.00 in0.0 mm 0.00 in0.0 mm 0.00 in0.0 mm
08:40 AM 56.5°F13.6°C 52.3°F11.3°C 86% 10.2 mph S16.4 kmh S 11.8 mph19.0 kmh 29.60 in1002.4 mb 0.00 in0.0 mm 0.00 in0.0 mm 0.00 in0.0 mm
08:50 AM 57.4°F14.1°C 52.9°F11.6°C 85% 12.1 mph S19.5 kmh S 11.8 mph19.0 kmh 29.61 in1002.7 mb 0.01 in0.3 mm 0.06 in1.5 mm 0.01 in0.3 mm
09:00 AM 57.9°F14.4°C 52.8°F11.6°C 83% 12.3 mph S19.8 kmh S 14.3 mph23.0 kmh 29.60 in1002.4 mb 0.01 in0.3 mm 0.00 in0.0 mm 0.01 in0.3 mm
09:10 AM 58.8°F14.9°C 53.0°F11.7°C 81% 13.0 mph SSW20.9 kmh SSW 15.0 mph24.1 kmh 29.61 in1002.7 mb 0.01 in0.3 mm 0.00 in0.0 mm 0.01 in0.3 mm
09:20 AM 59.4°F15.2°C 53.2°F11.8°C 80% 12.0 mph SW19.3 kmh SW 15.0 mph24.1 kmh 29.61 in1002.7 mb 0.01 in0.3 mm 0.00 in0.0 mm 0.01 in0.3 mm
09:30 AM 60.1°F15.6°C 53.5°F11.9°C 79% 11.1 mph SSW17.9 kmh SSW 12.5 mph20.1 kmh 29.61 in1002.7 mb 0.01 in0.3 mm 0.00 in0.0 mm 0.01 in0.3 mm
09:40 AM 61.9°F16.6°C 54.9°F12.7°C 78% 11.9 mph SW19.2 kmh SW 13.3 mph21.4 kmh 29.61 in1002.7 mb 0.01 in0.3 mm 0.00 in0.0 mm 0.01 in0.3 mm
09:50 AM 63.0°F17.2°C 52.6°F11.4°C 69% 14.1 mph SSW22.7 kmh SSW 16.7 mph26.9 kmh 29.61 in1002.7 mb 0.00 in0.0 mm 0.00 in0.0 mm 0.01 in0.3 mm
10:00 AM 62.4°F16.9°C 53.3°F11.8°C 72% 11.9 mph S19.2 kmh S 18.5 mph29.8 kmh 29.61 in1002.7 mb 0.00 in0.0 mm 0.00 in0.0 mm 0.01 in0.3 mm
10:10 AM 61.9°F16.6°C 52.8°F11.6°C 72% 13.8 mph N22.2 kmh N 20.2 mph32.5 kmh 29.62 in1003.0 mb 0.00 in0.0 mm 0.00 in0.0 mm 0.01 in0.3 mm
10:20 AM 62.6°F17.0°C 52.7°F11.5°C 70% 14.7 mph S23.7 kmh S 20.2 mph32.5 kmh 29.62 in1003.0 mb 0.00 in0.0 mm 0.00 in0.0 mm 0.01 in0.3 mm
10:30 AM 62.2°F16.8°C 53.1°F11.7°C 72% 12.7 mph S20.4 kmh S 15.0 mph24.1 kmh 29.62 in1003.0 mb 0.00 in0.0 mm 0.00 in0.0 mm 0.01 in0.3 mm
10:40 AM 62.2°F16.8°C 53.1°F11.7°C 72% 15.6 mph SW25.1 kmh SW 16.0 mph25.7 kmh 29.61 in1002.7 mb 0.00 in0.0 mm 0.00 in0.0 mm 0.01 in0.3 mm
10:50 AM 64.2°F17.9°C 54.2°F12.3°C 70% 12.7 mph WSW20.4 kmh WSW 17.5 mph28.2 kmh 29.62 in1003.0 mb 0.00 in0.0 mm 0.00 in0.0 mm 0.01 in0.3 mm
11:00 AM 64.6°F18.1°C 52.5°F11.4°C 65% 16.3 mph SW26.2 kmh SW 20.2 mph32.5 kmh 29.62 in1003.0 mb 0.00 in0.0 mm 0.00 in0.0 mm 0.01 in0.3 mm
11:10 AM 65.7°F18.7°C 53.6°F12.0°C 65% 11.3 mph S18.2 kmh S 16.0 mph25.7 kmh 29.61 in1002.7 mb 0.00 in0.0 mm 0.00 in0.0 mm 0.01 in0.3 mm
11:20 AM 66.6°F19.2°C 53.1°F11.7°C 62% 14.0 mph S22.5 kmh S 15.0 mph24.1 kmh 29.61 in1002.7 mb 0.00 in0.0 mm 0.00 in0.0 mm 0.01 in0.3 mm
11:30 AM 66.2°F19.0°C 52.8°F11.6°C 62% 14.3 mph WSW23.0 kmh WSW 24.4 mph39.3 kmh 29.61 in1002.7 mb 0.00 in0.0 mm 0.00 in0.0 mm 0.01 in0.3 mm
11:40 AM 65.1°F18.4°C 53.1°F11.7°C 65% 15.2 mph S24.5 kmh S 16.7 mph26.9 kmh 29.62 in1003.0 mb 0.00 in0.0 mm 0.00 in0.0 mm 0.01 in0.3 mm
11:50 AM 64.8°F18.2°C 52.7°F11.5°C 65% 16.2 mph SW26.1 kmh SW 18.5 mph29.8 kmh 29.62 in1003.0 mb 0.00 in0.0 mm 0.00 in0.0 mm 0.01 in0.3 mm
12:00 PM 63.7°F17.6°C 52.1°F11.2°C 66% 15.4 mph WSW24.8 kmh WSW 20.2 mph32.5 kmh 29.62 in1003.0 mb 0.00 in0.0 mm 0.00 in0.0 mm 0.01 in0.3 mm
12:10 PM 64.4°F18.0°C 54.0°F12.2°C 69% 17.2 mph NE27.7 kmh NE 16.0 mph25.7 kmh 29.63 in1003.4 mb 0.00 in0.0 mm 0.00 in0.0 mm 0.01 in0.3 mm
12:20 PM 64.8°F18.2°C 54.3°F12.4°C 69% 13.9 mph W22.4 kmh W 16.0 mph25.7 kmh 29.63 in1003.4 mb 0.00 in0.0 mm 0.00 in0.0 mm 0.01 in0.3 mm
12:30 PM 64.0°F17.8°C 54.1°F12.3°C 70% 12.0 mph SW19.3 kmh SW 14.3 mph23.0 kmh 29.63 in1003.4 mb 0.00 in0.0 mm 0.00 in0.0 mm 0.01 in0.3 mm
12:40 PM 63.9°F17.7°C 54.3°F12.4°C 71% 12.3 mph SW19.8 kmh SW 16.7 mph26.9 kmh 29.63 in1003.4 mb 0.00 in0.0 mm 0.00 in0.0 mm 0.01 in0.3 mm
12:50 PM 61.7°F16.5°C 54.4°F12.4°C 77% 12.4 mph SW20.0 kmh SW 15.0 mph24.1 kmh 29.63 in1003.4 mb 0.00 in0.0 mm 0.00 in0.0 mm 0.01 in0.3 mm
01:00 PM 60.3°F15.7°C 54.4°F12.4°C 81% 12.4 mph SW20.0 kmh SW 16.7 mph26.9 kmh 29.64 in1003.7 mb 0.01 in0.3 mm 0.01 in0.3 mm 0.02 in0.5 mm
01:10 PM 59.4°F15.2°C 54.5°F12.5°C 84% 7.8 mph SSE12.6 kmh SSE 9.1 mph14.6 kmh 29.65 in1004.1 mb 0.05 in1.3 mm 0.24 in6.1 mm 0.06 in1.5 mm
01:20 PM 59.0°F15.0°C 54.8°F12.7°C 86% 7.2 mph S11.6 kmh S 8.4 mph13.5 kmh 29.65 in1004.1 mb 0.05 in1.3 mm 0.00 in0.0 mm 0.06 in1.5 mm
01:30 PM 58.8°F14.9°C 54.6°F12.6°C 86% 8.1 mph S13.0 kmh S 13.3 mph21.4 kmh 29.66 in1004.4 mb 0.05 in1.3 mm 0.00 in0.0 mm 0.06 in1.5 mm
01:40 PM 58.6°F14.8°C 54.8°F12.7°C 87% 6.8 mph WSW10.9 kmh WSW 8.4 mph13.5 kmh 29.66 in1004.4 mb 0.05 in1.3 mm 0.00 in0.0 mm 0.06 in1.5 mm
01:50 PM 58.6°F14.8°C 55.1°F12.8°C 88% 8.9 mph WSW14.3 kmh WSW 12.5 mph20.1 kmh 29.67 in1004.7 mb 0.05 in1.3 mm 0.00 in0.0 mm 0.06 in1.5 mm
02:00 PM 59.0°F15.0°C 55.8°F13.2°C 89% 5.6 mph S9.0 kmh S 7.6 mph12.2 kmh 29.67 in1004.7 mb 0.04 in1.0 mm 0.00 in0.0 mm 0.06 in1.5 mm
02:10 PM 58.6°F14.8°C 55.1°F12.8°C 88% 7.4 mph WSW11.9 kmh WSW 9.1 mph14.6 kmh 29.67 in1004.7 mb 0.00 in0.0 mm 0.00 in0.0 mm 0.06 in1.5 mm
02:20 PM 58.5°F14.7°C 54.6°F12.6°C 87% 6.9 mph SSE11.1 kmh SSE 7.6 mph12.2 kmh 29.67 in1004.7 mb 0.00 in0.0 mm 0.00 in0.0 mm 0.06 in1.5 mm
02:30 PM 58.1°F14.5°C 54.6°F12.6°C 88% 9.0 mph S14.5 kmh S 11.8 mph19.0 kmh 29.67 in1004.7 mb 0.00 in0.0 mm 0.00 in0.0 mm 0.06 in1.5 mm
02:40 PM 58.6°F14.8°C 55.1°F12.8°C 88% 7.6 mph SSW12.2 kmh SSW 10.1 mph16.3 kmh 29.67 in1004.7 mb 0.00 in0.0 mm 0.00 in0.0 mm 0.06 in1.5 mm
02:50 PM 59.7°F15.4°C 56.2°F13.4°C 88% 6.9 mph S11.1 kmh S 8.4 mph13.5 kmh 29.68 in1005.1 mb 0.00 in0.0 mm 0.00 in0.0 mm 0.06 in1.5 mm
03:00 PM 59.5°F15.3°C 55.7°F13.2°C 87% 6.2 mph SSE10.0 kmh SSE 8.4 mph13.5 kmh 29.68 in1005.1 mb 0.00 in0.0 mm 0.00 in0.0 mm 0.06 in1.5 mm
03:10 PM 59.5°F15.3°C 55.3°F12.9°C 86% 4.7 mph SW7.6 kmh SW 5.9 mph9.5 kmh 29.68 in1005.1 mb 0.00 in0.0 mm 0.00 in0.0 mm 0.06 in1.5 mm
03:20 PM 59.5°F15.3°C 55.0°F12.8°C 85% 8.0 mph SSE12.9 kmh SSE 10.1 mph16.3 kmh 29.68 in1005.1 mb 0.00 in0.0 mm 0.00 in0.0 mm 0.06 in1.5 mm
03:30 PM 60.1°F15.6°C 55.6°F13.1°C 85% 8.8 mph SW14.2 kmh SW 10.8 mph17.4 kmh 29.68 in1005.1 mb 0.00 in0.0 mm 0.00 in0.0 mm 0.06 in1.5 mm
03:40 PM 60.1°F15.6°C 54.9°F12.7°C 83% 7.0 mph SW11.3 kmh SW 9.1 mph14.6 kmh 29.68 in1005.1 mb 0.00 in0.0 mm 0.00 in0.0 mm 0.06 in1.5 mm
03:50 PM 59.9°F15.5°C 54.7°F12.6°C 83% 4.5 mph SW7.2 kmh SW 4.9 mph7.9 kmh 29.68 in1005.1 mb 0.00 in0.0 mm 0.00 in0.0 mm 0.06 in1.5 mm
04:00 PM 59.5°F15.3°C 54.7°F12.6°C 84% 4.7 mph WSW7.6 kmh WSW 6.6 mph10.6 kmh 29.68 in1005.1 mb 0.00 in0.0 mm 0.00 in0.0 mm 0.06 in1.5 mm
04:10 PM 59.4°F15.2°C 54.5°F12.5°C 84% 3.9 mph SW6.3 kmh SW 4.2 mph6.8 kmh 29.68 in1005.1 mb 0.00 in0.0 mm 0.00 in0.0 mm 0.06 in1.5 mm
04:20 PM 59.4°F15.2°C 54.8°F12.7°C 85% 3.6 mph S5.8 kmh S 6.6 mph10.6 kmh 29.68 in1005.1 mb 0.00 in0.0 mm 0.00 in0.0 mm 0.06 in1.5 mm
04:30 PM 59.5°F15.3°C 55.0°F12.8°C 85% 3.8 mph NW6.1 kmh NW 6.6 mph10.6 kmh 29.68 in1005.1 mb 0.00 in0.0 mm 0.00 in0.0 mm 0.06 in1.5 mm
04:40 PM 59.4°F15.2°C 54.8°F12.7°C 85% 3.2 mph SW5.1 kmh SW 4.2 mph6.8 kmh 29.68 in1005.1 mb 0.00 in0.0 mm 0.00 in0.0 mm 0.06 in1.5 mm
04:50 PM 59.2°F15.1°C 54.7°F12.6°C 85% 3.6 mph S5.8 kmh S 6.6 mph10.6 kmh 29.68 in1005.1 mb 0.00 in0.0 mm 0.00 in0.0 mm 0.06 in1.5 mm
05:00 PM 59.0°F15.0°C 54.5°F12.5°C 85% 2.3 mph SW3.7 kmh SW 4.2 mph6.8 kmh 29.69 in1005.4 mb 0.00 in0.0 mm 0.00 in0.0 mm 0.06 in1.5 mm
05:10 PM 58.6°F14.8°C 54.1°F12.3°C 85% 2.1 mph SSW3.4 kmh SSW 3.4 mph5.5 kmh 29.68 in1005.1 mb 0.00 in0.0 mm 0.00 in0.0 mm 0.06 in1.5 mm
05:20 PM 58.3°F14.6°C 54.1°F12.3°C 86% 1.5 mph WSW2.4 kmh WSW 2.5 mph4.0 kmh 29.69 in1005.4 mb 0.00 in0.0 mm 0.00 in0.0 mm 0.06 in1.5 mm
05:30 PM 58.1°F14.5°C 53.9°F12.2°C 86% 1.3 mph SW2.1 kmh SW 2.5 mph4.0 kmh 29.68 in1005.1 mb 0.00 in0.0 mm 0.00 in0.0 mm 0.06 in1.5 mm
05:40 PM 57.7°F14.3°C 53.9°F12.2°C 87% 2.7 mph SW4.3 kmh SW 4.2 mph6.8 kmh 29.68 in1005.1 mb 0.00 in0.0 mm 0.00 in0.0 mm 0.06 in1.5 mm
05:50 PM 57.6°F14.2°C 54.0°F12.2°C 88% 2.2 mph S3.5 kmh S 2.5 mph4.0 kmh 29.69 in1005.4 mb 0.00 in0.0 mm 0.00 in0.0 mm 0.06 in1.5 mm
06:00 PM 57.7°F14.3°C 54.5°F12.5°C 89% 4.0 mph WSW6.4 kmh WSW 5.9 mph9.5 kmh 29.69 in1005.4 mb 0.00 in0.0 mm 0.00 in0.0 mm 0.06 in1.5 mm
06:10 PM 57.9°F14.4°C 54.7°F12.6°C 89% 5.4 mph NE8.7 kmh NE 4.9 mph7.9 kmh 29.69 in1005.4 mb 0.00 in0.0 mm 0.00 in0.0 mm 0.06 in1.5 mm
06:20 PM 58.1°F14.5°C 54.2°F12.3°C 87% 6.1 mph SSE9.8 kmh SSE 5.9 mph9.5 kmh 29.69 in1005.4 mb 0.00 in0.0 mm 0.00 in0.0 mm 0.06 in1.5 mm
06:30 PM 58.1°F14.5°C 53.6°F12.0°C 85% 4.4 mph S7.1 kmh S 6.6 mph10.6 kmh 29.69 in1005.4 mb 0.00 in0.0 mm 0.00 in0.0 mm 0.06 in1.5 mm
06:40 PM 58.1°F14.5°C 53.3°F11.8°C 84% 5.8 mph SSW9.3 kmh SSW 7.6 mph12.2 kmh 29.69 in1005.4 mb 0.00 in0.0 mm 0.00 in0.0 mm 0.06 in1.5 mm
06:50 PM 58.1°F14.5°C 53.0°F11.7°C 83% 6.1 mph SSW9.8 kmh SSW 6.6 mph10.6 kmh 29.69 in1005.4 mb 0.00 in0.0 mm 0.00 in0.0 mm 0.06 in1.5 mm
07:00 PM 57.9°F14.4°C 52.5°F11.4°C 82% 5.7 mph SW9.2 kmh SW 5.9 mph9.5 kmh 29.69 in1005.4 mb 0.00 in0.0 mm 0.00 in0.0 mm 0.06 in1.5 mm
07:10 PM 57.7°F14.3°C 52.3°F11.3°C 82% 4.7 mph S7.6 kmh S 5.9 mph9.5 kmh 29.69 in1005.4 mb 0.00 in0.0 mm 0.00 in0.0 mm 0.06 in1.5 mm
07:20 PM 57.6°F14.2°C 52.1°F11.2°C 82% 5.3 mph SSW8.5 kmh SSW 7.6 mph12.2 kmh 29.69 in1005.4 mb 0.00 in0.0 mm 0.00 in0.0 mm 0.06 in1.5 mm
07:30 PM 57.4°F14.1°C 51.9°F11.1°C 82% 5.6 mph SE9.0 kmh SE 6.6 mph10.6 kmh 29.68 in1005.1 mb 0.00 in0.0 mm 0.00 in0.0 mm 0.06 in1.5 mm
07:40 PM 57.4°F14.1°C 51.9°F11.1°C 82% 7.0 mph SSW11.3 kmh SSW 11.8 mph19.0 kmh 29.68 in1005.1 mb 0.00 in0.0 mm 0.00 in0.0 mm 0.06 in1.5 mm
07:50 PM 57.4°F14.1°C 51.6°F10.9°C 81% 7.5 mph SW12.1 kmh SW 11.8 mph19.0 kmh 29.69 in1005.4 mb 0.00 in0.0 mm 0.00 in0.0 mm 0.06 in1.5 mm
08:00 PM 57.2°F14.0°C 51.4°F10.8°C 81% 5.9 mph S9.5 kmh S 6.6 mph10.6 kmh 29.68 in1005.1 mb 0.00 in0.0 mm 0.00 in0.0 mm 0.06 in1.5 mm
08:10 PM 56.8°F13.8°C 51.4°F10.8°C 82% 4.9 mph SSW7.9 kmh SSW 6.6 mph10.6 kmh 29.68 in1005.1 mb 0.00 in0.0 mm 0.00 in0.0 mm 0.06 in1.5 mm
08:20 PM 56.7°F13.7°C 51.2°F10.7°C 82% 7.9 mph S12.7 kmh S 7.6 mph12.2 kmh 29.67 in1004.7 mb 0.00 in0.0 mm 0.00 in0.0 mm 0.06 in1.5 mm
08:30 PM 56.5°F13.6°C 51.1°F10.6°C 82% 8.0 mph SSW12.9 kmh SSW 8.4 mph13.5 kmh 29.68 in1005.1 mb 0.00 in0.0 mm 0.00 in0.0 mm 0.06 in1.5 mm
08:40 PM 56.5°F13.6°C 51.1°F10.6°C 82% 9.2 mph SSW14.8 kmh SSW 9.1 mph14.6 kmh 29.67 in1004.7 mb 0.00 in0.0 mm 0.00 in0.0 mm 0.06 in1.5 mm
08:50 PM 56.5°F13.6°C 50.7°F10.4°C 81% 8.6 mph SW13.8 kmh SW 11.8 mph19.0 kmh 29.68 in1005.1 mb 0.00 in0.0 mm 0.00 in0.0 mm 0.06 in1.5 mm
09:00 PM 56.3°F13.5°C 50.5°F10.3°C 81% 9.0 mph S14.5 kmh S 11.8 mph19.0 kmh 29.68 in1005.1 mb 0.00 in0.0 mm 0.00 in0.0 mm 0.06 in1.5 mm
09:10 PM 56.3°F13.5°C 50.5°F10.3°C 81% 6.9 mph S11.1 kmh S 9.1 mph14.6 kmh 29.68 in1005.1 mb 0.00 in0.0 mm 0.00 in0.0 mm 0.06 in1.5 mm
09:20 PM 56.1°F13.4°C 50.4°F10.2°C 81% 6.5 mph SW10.5 kmh SW 7.6 mph12.2 kmh 29.68 in1005.1 mb 0.00 in0.0 mm 0.00 in0.0 mm 0.06 in1.5 mm
09:30 PM 56.1°F13.4°C 50.4°F10.2°C 81% 7.3 mph S11.7 kmh S 8.4 mph13.5 kmh 29.67 in1004.7 mb 0.00 in0.0 mm 0.00 in0.0 mm 0.06 in1.5 mm
09:40 PM 55.6°F13.1°C 50.2°F10.1°C 82% 6.2 mph SW10.0 kmh SW 7.6 mph12.2 kmh 29.68 in1005.1 mb 0.01 in0.3 mm 0.06 in1.5 mm 0.07 in1.8 mm
09:50 PM 55.2°F12.9°C 50.1°F10.1°C 83% 8.1 mph SSW13.0 kmh SSW 7.6 mph12.2 kmh 29.67 in1004.7 mb 0.01 in0.3 mm 0.00 in0.0 mm 0.07 in1.8 mm
10:00 PM 55.0°F12.8°C 50.3°F10.2°C 84% 7.2 mph SSW11.6 kmh SSW 10.1 mph16.3 kmh 29.67 in1004.7 mb 0.02 in0.5 mm 0.01 in0.3 mm 0.08 in2.0 mm
10:10 PM 54.7°F12.6°C 50.3°F10.2°C 85% 10.1 mph NW16.3 kmh NW 8.4 mph13.5 kmh 29.66 in1004.4 mb 0.04 in1.0 mm 0.12 in3.0 mm 0.09 in2.3 mm
10:20 PM 54.5°F12.5°C 50.4°F10.2°C 86% 5.4 mph SW8.7 kmh SW 6.6 mph10.6 kmh 29.65 in1004.1 mb 0.04 in1.0 mm 0.00 in0.0 mm 0.09 in2.3 mm
10:30 PM 54.3°F12.4°C 50.5°F10.3°C 87% 4.6 mph SSE7.4 kmh SSE 4.9 mph7.9 kmh 29.65 in1004.1 mb 0.05 in1.3 mm 0.06 in1.5 mm 0.11 in2.8 mm
10:40 PM 54.1°F12.3°C 50.7°F10.4°C 88% 4.7 mph S7.6 kmh S 5.9 mph9.5 kmh 29.64 in1003.7 mb 0.04 in1.0 mm 0.00 in0.0 mm 0.11 in2.8 mm
10:50 PM 54.1°F12.3°C 51.0°F10.6°C 89% 5.3 mph S8.5 kmh S 5.9 mph9.5 kmh 29.64 in1003.7 mb 0.05 in1.3 mm 0.06 in1.5 mm 0.12 in3.0 mm
11:00 PM 54.1°F12.3°C 51.3°F10.7°C 90% 4.7 mph S7.6 kmh S 5.9 mph9.5 kmh 29.62 in1003.0 mb 0.04 in1.0 mm 0.00 in0.0 mm 0.12 in3.0 mm
11:10 PM 54.3°F12.4°C 51.7°F10.9°C 91% 8.3 mph S13.4 kmh S 10.1 mph16.3 kmh 29.62 in1003.0 mb 0.02 in0.5 mm 0.00 in0.0 mm 0.12 in3.0 mm
11:20 PM 54.1°F12.3°C 51.9°F11.1°C 92% 8.2 mph S13.2 kmh S 8.4 mph13.5 kmh 29.61 in1002.7 mb 0.04 in1.0 mm 0.12 in3.0 mm 0.01 in0.3 mm
11:30 PM 53.6°F12.0°C 51.3°F10.7°C 92% 8.8 mph SSE14.2 kmh SSE 9.1 mph14.6 kmh 29.60 in1002.4 mb 0.04 in1.0 mm 0.00 in0.0 mm 0.02 in0.5 mm
11:40 PM 53.6°F12.0°C 51.3°F10.7°C 92% 5.4 mph SSW8.7 kmh SSW 6.6 mph10.6 kmh 29.59 in1002.0 mb 0.06 in1.5 mm 0.12 in3.0 mm 0.05 in1.3 mm
11:50 PM 53.8°F12.1°C 51.5°F10.8°C 92% 5.4 mph SE8.7 kmh SE 6.6 mph10.6 kmh 29.57 in1001.4 mb 0.07 in1.8 mm 0.06 in1.5 mm 0.07 in1.8 mm